HSG weather

Saga Airport
Saga, Saga Prefecture, Japan

Public forecast

Using degrees Celsius for public forecast. Weather courtesy of forecast.io.

Current aviation weather report (METAR) for Saga Airport

Retrieved 2019/10/19 11:00 UTC (18 minutes ago):

RJFS 191100Z 01004KT 9999 FEW030 BKN/// 18/16 Q1018

Aviation forecast (TAF) for Saga Airport

Retrieved 2019/10/19 06:30 UTC (5 hours ago):

TAF TAF RJFS 190512Z 1906/2012 36008KT 9999 FEW040 BECMG 1912/1914 02009KT